Time;durP1;ratioP1;P1;durP2;ratioP2;P2;SDS_P1;SDS_P2;PMS_P1;PMS_P2;Temp;Humidity;BMP_temperature;BMP_pressure;BME280_temperature;BME280_humidity;BME280_pressure;Samples;Min_cycle;Max_cycle;Signal;HPM_P1;HPM_P2
2023/02/09 00:00:53;;;;;;;11.47;5.00;;;-2.90;99.90;-2.30;98876.00;;;;5071301;28;20496;-72
2023/02/09 00:03:44;;;;;;;9.07;6.17;;;-2.90;99.90;-2.30;98868.00;;;;5068229;28;20957;-72
2023/02/09 00:06:32;;;;;;;8.80;5.33;;;-3.00;99.90;-2.30;98875.00;;;;5070468;28;21035;-72
2023/02/09 00:09:21;;;;;;;12.37;5.13;;;-3.00;99.90;-2.30;98880.00;;;;5069520;28;20453;-71
2023/02/09 00:15:16;;;;;;;8.73;5.27;;;-3.10;99.90;-2.60;98873.00;;;;5070438;28;20423;-71
2023/02/09 00:18:05;;;;;;;10.13;6.47;;;-3.10;99.90;-2.60;98876.00;;;;5069876;28;20504;-71
2023/02/09 00:20:59;;;;;;;9.13;4.43;;;-3.20;99.90;-2.70;98861.00;;;;5070766;28;20953;-71
2023/02/09 00:23:48;;;;;;;8.53;6.97;;;-3.30;99.90;-2.80;98862.00;;;;5069862;28;20457;-72
2023/02/09 00:26:37;;;;;;;8.13;6.23;;;-3.30;99.90;-2.90;98864.00;;;;5069941;28;20516;-71
2023/02/09 00:29:26;;;;;;;6.83;4.67;;;-3.40;99.90;-3.30;98860.00;;;;5068272;28;20468;-71
2023/02/09 00:32:15;;;;;;;7.43;6.70;;;-3.40;99.90;-3.10;98853.00;;;;5069116;28;20443;-72
2023/02/09 00:35:06;;;;;;;11.57;7.60;;;-3.50;99.90;-3.10;98863.00;;;;5065605;28;20956;-72
2023/02/09 00:37:56;;;;;;;8.03;5.83;;;-3.60;99.90;-3.20;98850.00;;;;5069318;28;20422;-72
2023/02/09 00:40:47;;;;;;;8.43;6.30;;;-3.60;99.90;-3.30;98853.00;;;;5069791;28;20915;-74
2023/02/09 00:43:36;;;;;;;8.63;5.50;;;-3.70;99.90;-3.50;98843.00;;;;5071154;28;20465;-71
2023/02/09 00:46:25;;;;;;;10.27;5.07;;;-3.60;99.90;-3.50;98843.00;;;;5070245;28;20844;-72
2023/02/09 00:49:13;;;;;;;6.20;4.83;;;-3.40;99.90;-3.50;98843.00;;;;5070236;28;21079;-71
2023/02/09 00:52:03;;;;;;;5.30;4.63;;;-3.50;99.90;-3.10;98844.00;;;;5068914;28;20462;-71
2023/02/09 00:54:53;;;;;;;7.77;6.67;;;-3.80;99.90;-3.10;98846.00;;;;5064017;28;20426;-72
2023/02/09 00:57:42;;;;;;;9.80;7.77;;;-3.80;99.90;-3.20;98836.00;;;;5068572;28;20503;-72
2023/02/09 01:00:31;;;;;;;9.40;5.40;;;-3.80;99.90;-3.10;98851.00;;;;5069528;28;20426;-71
2023/02/09 01:03:19;;;;;;;9.83;6.03;;;-3.90;99.90;-3.20;98837.00;;;;5069775;28;20438;-71
2023/02/09 01:06:09;;;;;;;7.17;5.03;;;-3.90;99.90;-3.40;98826.00;;;;5068783;28;21018;-71
2023/02/09 01:08:58;;;;;;;7.73;5.70;;;-3.90;99.90;-3.60;98830.00;;;;5056355;28;20800;-71
2023/02/09 01:11:48;;;;;;;13.23;6.00;;;-3.90;99.90;-3.60;98824.00;;;;5069522;28;20500;-70
2023/02/09 01:14:38;;;;;;;8.77;4.93;;;-4.00;99.90;-3.60;98822.00;;;;5069952;28;20433;-71
2023/02/09 01:17:27;;;;;;;10.23;5.43;;;-4.00;99.90;-3.80;98822.00;;;;5069393;28;21103;-70
2023/02/09 01:20:16;;;;;;;8.07;5.33;;;-4.10;99.90;-3.80;98814.00;;;;5055513;28;20426;-70
2023/02/09 01:23:05;;;;;;;7.37;5.27;;;-4.10;99.90;-3.60;98810.00;;;;5068634;28;20496;-71
2023/02/09 01:26:02;;;;;;;10.37;5.97;;;-4.20;99.90;-3.70;98812.00;;;;5068888;28;20473;-71
2023/02/09 01:28:53;;;;;;;8.17;5.23;;;-3.90;99.90;-3.80;98803.00;;;;5064388;28;20417;-71
2023/02/09 01:31:43;;;;;;;9.87;5.80;;;-4.10;99.90;-3.60;98793.00;;;;5068204;28;20423;-71
2023/02/09 01:34:32;;;;;;;9.63;6.10;;;-2.70;99.90;-3.70;98801.00;;;;5071083;28;20843;-71
2023/02/09 01:37:21;;;;;;;7.63;6.93;;;-4.20;99.90;-4.00;98797.00;;;;5069192;28;20875;-72
2023/02/09 01:40:11;;;;;;;9.87;4.47;;;-4.10;99.90;-4.00;98788.00;;;;5069580;28;20464;-71
2023/02/09 01:43:00;;;;;;;11.33;6.50;;;-4.40;99.90;-4.30;98791.00;;;;5069265;28;20449;-72
2023/02/09 01:45:53;;;;;;;5.27;4.50;;;-4.50;99.90;-4.60;98796.00;;;;5069966;28;20470;-74
2023/02/09 01:48:42;;;;;;;12.27;5.73;;;-4.60;99.90;-4.30;98788.00;;;;5068795;28;20520;-74
2023/02/09 01:51:36;;;;;;;8.80;5.60;;;-4.70;99.90;-4.30;98792.00;;;;5069372;28;20426;-74
2023/02/09 01:54:32;;;;;;;9.53;4.90;;;-4.80;99.90;-4.40;98776.00;;;;5067606;28;20480;-74
2023/02/09 01:57:27;;;;;;;7.10;4.87;;;-4.90;99.90;-4.70;98773.00;;;;5069375;28;20430;-72
2023/02/09 02:00:19;;;;;;;8.93;5.43;;;-4.30;99.90;-4.70;98777.00;;;;5069243;28;20450;-73
2023/02/09 02:03:14;;;;;;;9.40;4.80;;;-5.00;99.90;-4.90;98760.00;;;;5068857;28;20454;-75
2023/02/09 02:06:09;;;;;;;8.10;5.47;;;-5.00;99.90;-5.00;98759.00;;;;5069134;28;20481;-75
2023/02/09 02:09:03;;;;;;;9.60;5.77;;;-5.10;99.90;-5.10;98750.00;;;;5055499;28;20493;-73
2023/02/09 02:11:52;;;;;;;5.50;4.37;;;-5.10;99.90;-4.70;98747.00;;;;5068950;28;20433;-72
2023/02/09 02:14:41;;;;;;;5.30;4.30;;;-4.70;99.90;-4.70;98749.00;;;;5069278;28;20434;-72
2023/02/09 02:17:54;;;;;;;4.37;3.60;;;-5.20;99.90;-4.70;98743.00;;;;5069829;28;20484;-73
2023/02/09 02:21:24;;;;;;;6.77;4.57;;;-5.00;99.90;-4.50;98741.00;;;;5071740;28;20965;-72
2023/02/09 02:24:53;;;;;;;6.57;5.53;;;-5.20;99.90;-4.30;98737.00;;;;5069057;28;20430;-73
2023/02/09 02:27:47;;;;;;;5.13;4.23;;;-5.10;99.90;-4.20;98740.00;;;;5072813;28;20464;-73
2023/02/09 02:30:53;;;;;;;8.43;5.37;;;-4.10;99.90;-4.40;98746.00;;;;5072395;28;20492;-73
2023/02/09 02:33:51;;;;;;;7.43;5.03;;;-4.90;99.90;-4.10;98746.00;;;;5071395;28;20510;-72
2023/02/09 02:36:50;;;;;;;7.07;5.70;;;-4.90;99.90;-4.00;98735.00;;;;5072490;28;20426;-72
2023/02/09 02:39:49;;;;;;;6.70;4.00;;;-4.80;99.90;-3.90;98742.00;;;;5072170;28;20437;-73
2023/02/09 02:42:48;;;;;;;9.33;5.17;;;-4.80;99.90;-3.80;98742.00;;;;5070745;28;20461;-72
2023/02/09 02:45:43;;;;;;;16.27;6.33;;;-4.40;99.90;-3.90;98721.00;;;;5070612;28;20414;-72
2023/02/09 02:48:39;;;;;;;6.60;5.33;;;-4.50;99.90;-3.90;98732.00;;;;5072003;28;20830;-72
2023/02/09 02:51:33;;;;;;;10.93;6.57;;;-4.50;99.90;-4.10;98720.00;;;;5071684;28;20430;-72
2023/02/09 02:54:28;;;;;;;9.17;5.67;;;-4.50;99.90;-4.60;98705.00;;;;5069965;28;20419;-73
2023/02/09 02:57:20;;;;;;;8.90;6.63;;;-4.60;99.90;-4.30;98710.00;;;;5069548;28;20434;-73
2023/02/09 03:00:13;;;;;;;8.00;4.47;;;-4.70;99.90;-4.20;98712.00;;;;5072146;28;20425;-72
2023/02/09 03:03:08;;;;;;;3.57;2.83;;;-4.80;99.90;-4.50;98708.00;;;;5070891;28;20524;-72
2023/02/09 03:05:57;;;;;;;8.37;5.23;;;-4.90;99.90;-4.60;98702.00;;;;5071828;28;20500;-72
2023/02/09 03:08:50;;;;;;;6.70;5.23;;;-4.70;99.90;-4.40;98711.00;;;;5071341;28;20812;-72
2023/02/09 03:11:44;;;;;;;6.43;5.10;;;-4.90;99.90;-4.40;98696.00;;;;5071113;28;20438;-72
2023/02/09 03:14:43;;;;;;;8.23;5.30;;;-4.40;99.90;-4.70;98693.00;;;;5071973;28;20429;-73
2023/02/09 03:17:43;;;;;;;4.50;3.80;;;-5.00;99.90;-4.60;98684.00;;;;5071088;28;20934;-73
2023/02/09 03:20:41;;;;;;;8.90;5.60;;;-5.10;99.90;-4.90;98681.00;;;;5060278;28;20930;-72
2023/02/09 03:23:37;;;;;;;11.23;4.90;;;-5.10;99.90;-4.70;98689.00;;;;5071397;28;20446;-71
2023/02/09 03:26:38;;;;;;;11.20;7.07;;;-3.60;99.90;-4.60;98696.00;;;;5070824;28;20465;-73
2023/02/09 03:29:28;;;;;;;6.13;5.53;;;-4.80;99.90;-4.80;98682.00;;;;5068840;28;20517;-71
2023/02/09 03:32:18;;;;;;;5.43;4.93;;;-5.20;99.90;-4.90;98696.00;;;;5072363;28;20508;-71
2023/02/09 03:35:10;;;;;;;7.83;5.53;;;-4.90;99.90;-4.70;98679.00;;;;5063835;28;21144;-70
2023/02/09 03:37:59;;;;;;;11.40;6.43;;;-5.10;99.90;-4.60;98692.00;;;;5070899;28;20988;-70
2023/02/09 03:40:48;;;;;;;5.00;4.47;;;-4.80;99.90;-4.60;98685.00;;;;5071045;28;20936;-71
2023/02/09 03:46:44;;;;;;;9.23;5.13;;;-5.00;99.90;-5.20;98684.00;;;;5071679;28;20458;-72
2023/02/09 03:49:38;;;;;;;8.63;5.33;;;-5.20;99.90;-5.20;98676.00;;;;5070973;28;20196;-72
2023/02/09 03:52:26;;;;;;;5.20;4.30;;;-5.40;99.90;-5.40;98666.00;;;;5070401;28;20443;-71
2023/02/09 03:55:15;;;;;;;5.67;5.17;;;-5.50;99.90;-5.80;98678.00;;;;5071140;28;20425;-75
2023/02/09 03:58:04;;;;;;;12.35;5.45;;;-5.70;99.90;-5.70;98668.00;;;;5069352;28;20439;-76
2023/02/09 04:00:54;;;;;;;5.57;4.23;;;-5.80;99.90;-5.50;98678.00;;;;5066269;28;20199;-75
2023/02/09 04:03:43;;;;;;;10.17;5.00;;;-5.80;99.90;-5.50;98680.00;;;;5067914;28;20441;-75
2023/02/09 04:06:34;;;;;;;7.67;5.83;;;-5.90;99.90;-5.40;98673.00;;;;5070794;28;20453;-75
2023/02/09 04:09:23;;;;;;;9.20;5.50;;;-5.90;99.90;-5.60;98686.00;;;;5070700;28;20807;-75
2023/02/09 04:12:11;;;;;;;3.70;3.30;;;-5.90;99.90;-5.50;98683.00;;;;5069793;28;20215;-75
2023/02/09 04:15:00;;;;;;;5.65;4.00;;;-5.90;99.90;-5.50;98678.00;;;;5070422;28;20427;-75
2023/02/09 04:17:50;;;;;;;8.63;5.00;;;-5.90;99.90;-5.80;98675.00;;;;5063995;28;20596;-75
2023/02/09 04:20:39;;;;;;;10.93;6.00;;;-6.00;99.90;-6.10;98667.00;;;;5069954;28;20449;-75
2023/02/09 04:23:27;;;;;;;6.35;4.60;;;-6.10;99.90;-5.80;98665.00;;;;5069581;28;20446;-75
2023/02/09 04:26:17;;;;;;;6.83;4.20;;;-6.10;99.90;-5.60;98676.00;;;;5070055;28;20289;-75
2023/02/09 04:29:05;;;;;;;6.23;4.37;;;-6.20;99.90;-5.80;98666.00;;;;5068853;28;20429;-75
2023/02/09 04:31:54;;;;;;;4.43;4.03;;;-6.20;99.90;-6.20;98668.00;;;;5060110;28;20496;-74
2023/02/09 04:34:44;;;;;;;8.93;6.83;;;-6.20;99.90;-6.20;98657.00;;;;5072093;28;20282;-74
2023/02/09 04:37:33;;;;;;;9.73;6.37;;;-6.30;99.90;-6.20;98655.00;;;;5070065;28;20429;-74
2023/02/09 04:40:22;;;;;;;4.68;4.22;;;-6.40;99.90;-6.20;98652.00;;;;5070669;28;20492;-74
2023/02/09 04:43:11;;;;;;;8.07;7.03;;;-5.90;99.90;-6.40;98661.00;;;;5070705;28;20223;-73
2023/02/09 04:46:01;;;;;;;5.85;5.20;;;-6.50;99.90;-6.50;98657.00;;;;5071154;28;20223;-73
2023/02/09 04:48:50;;;;;;;5.57;5.03;;;-6.10;99.90;-6.50;98654.00;;;;5070244;28;20232;-73
2023/02/09 04:51:40;;;;;;;4.75;4.35;;;-4.90;99.90;-6.30;98658.00;;;;5071085;28;20265;-73
2023/02/09 04:54:29;;;;;;;11.57;5.95;;;-6.60;99.90;-6.30;98675.00;;;;5070856;28;20748;-73
2023/02/09 05:00:24;;;;;;;6.30;5.30;;;-6.70;99.90;-6.60;98652.00;;;;5069738;28;20261;-73
2023/02/09 05:03:12;;;;;;;8.10;5.07;;;-5.30;99.90;-6.40;98659.00;;;;5070060;28;20229;-72
2023/02/09 05:06:04;;;;;;;6.63;4.55;;;-6.70;99.90;-6.40;98661.00;;;;5065219;28;20200;-72
2023/02/09 05:08:54;;;;;;;6.90;4.28;;;-6.70;99.90;-6.20;98670.00;;;;5069552;28;20220;-73
2023/02/09 05:11:42;;;;;;;4.85;3.72;;;-6.70;99.90;-6.20;98678.00;;;;5069554;28;20197;-73
2023/02/09 05:14:31;;;;;;;6.32;4.95;;;-6.70;99.90;-6.40;98669.00;;;;5068331;28;20192;-73
2023/02/09 05:17:20;;;;;;;8.68;4.80;;;-6.60;99.90;-6.60;98675.00;;;;5067061;28;21007;-73
2023/02/09 05:20:10;;;;;;;6.00;5.43;;;-6.60;99.90;-6.50;98670.00;;;;5067997;28;20698;-74
2023/02/09 05:22:59;;;;;;;8.23;6.18;;;-6.70;99.90;-6.40;98678.00;;;;5067944;28;20235;-73
2023/02/09 05:25:49;;;;;;;8.60;5.57;;;-6.70;99.90;-6.40;98686.00;;;;5069704;28;20195;-75
2023/02/09 05:28:38;;;;;;;13.90;6.38;;;-6.80;99.90;-6.70;98678.00;;;;5069096;28;20263;-73
2023/02/09 05:31:27;;;;;;;6.97;6.28;;;-6.80;99.90;-6.50;98678.00;;;;5069014;28;20683;-73
2023/02/09 05:34:15;;;;;;;5.03;4.32;;;-6.80;99.90;-6.60;98684.00;;;;5071206;28;20195;-74
2023/02/09 05:37:04;;;;;;;6.70;6.10;;;-6.80;99.90;-6.50;98675.00;;;;5068622;28;20233;-75
2023/02/09 05:39:53;;;;;;;7.47;5.03;;;-6.90;99.90;-6.40;98699.00;;;;5064022;28;20219;-75
2023/02/09 05:42:43;;;;;;;10.80;4.25;;;-6.80;99.90;-6.20;98714.00;;;;5067181;28;20234;-74
2023/02/09 05:45:32;;;;;;;10.70;5.00;;;-6.80;99.90;-6.40;98707.00;;;;5065312;28;20199;-74
2023/02/09 05:48:20;;;;;;;6.28;4.78;;;-6.80;99.90;-6.60;98694.00;;;;5065830;28;20216;-74
2023/02/09 05:51:09;;;;;;;8.88;5.90;;;-6.80;99.90;-6.50;98688.00;;;;5067470;28;20204;-74
2023/02/09 05:53:58;;;;;;;7.35;5.00;;;-6.80;99.90;-6.70;98700.00;;;;5067517;28;20220;-75
2023/02/09 05:56:47;;;;;;;10.20;5.60;;;-6.90;99.90;-6.90;98698.00;;;;5067978;28;20552;-74
2023/02/09 05:59:37;;;;;;;5.95;4.07;;;-7.00;99.90;-7.10;98686.00;;;;5066476;28;20690;-73
2023/02/09 06:02:26;;;;;;;6.93;3.90;;;-7.00;99.90;-6.80;98692.00;;;;5067095;28;20250;-74
2023/02/09 06:05:15;;;;;;;7.32;5.57;;;-7.10;99.90;-6.90;98692.00;;;;5065555;28;20196;-73
2023/02/09 06:08:04;;;;;;;9.43;4.45;;;-7.10;99.90;-7.10;98694.00;;;;5069376;28;20224;-73
2023/02/09 06:10:52;;;;;;;8.75;6.10;;;-7.10;99.90;-6.90;98692.00;;;;5063433;28;20200;-73
2023/02/09 06:13:41;;;;;;;7.07;5.45;;;-7.20;99.90;-6.70;98696.00;;;;5066343;28;20734;-73
2023/02/09 06:16:31;;;;;;;4.97;4.47;;;-7.10;99.90;-6.90;98689.00;;;;5068503;28;20219;-73
2023/02/09 06:19:21;;;;;;;6.35;4.32;;;-7.10;99.90;-6.70;98712.00;;;;5068591;28;20204;-73
2023/02/09 06:22:10;;;;;;;8.38;5.45;;;-7.10;99.90;-6.80;98699.00;;;;5069378;28;20227;-74
2023/02/09 06:25:00;;;;;;;5.07;3.58;;;-5.60;99.90;-6.70;98707.00;;;;5068307;28;20567;-73
2023/02/09 06:27:49;;;;;;;7.97;5.20;;;-7.10;99.90;-6.90;98714.00;;;;5067531;28;20234;-73
2023/02/09 06:30:37;;;;;;;13.65;8.50;;;-7.10;99.90;-6.90;98722.00;;;;5066611;28;20204;-73
2023/02/09 06:33:29;;;;;;;9.65;5.85;;;-7.10;99.90;-7.10;98712.00;;;;5056061;28;20216;-74
2023/02/09 06:36:18;;;;;;;9.95;6.15;;;-7.20;99.90;-7.20;98706.00;;;;5067488;28;20204;-73
2023/02/09 06:39:08;;;;;;;6.85;4.68;;;-5.70;99.90;-7.20;98714.00;;;;5068895;28;20611;-73
2023/02/09 06:41:57;;;;;;;7.30;6.07;;;-7.30;99.90;-7.30;98715.00;;;;5068678;28;20200;-73
2023/02/09 06:44:45;;;;;;;6.53;4.03;;;-5.20;99.90;-7.40;98711.00;;;;5069393;28;20208;-74
2023/02/09 06:47:34;;;;;;;5.47;3.88;;;-7.50;99.90;-7.40;98713.00;;;;5066383;28;20265;-75
2023/02/09 06:50:24;;;;;;;10.10;3.83;;;-7.50;99.90;-7.60;98715.00;;;;5068421;28;20208;-74
2023/02/09 06:53:13;;;;;;;6.25;4.82;;;-7.50;99.90;-7.60;98717.00;;;;5061841;28;20223;-72
2023/02/09 06:56:02;;;;;;;3.08;2.78;;;-7.50;99.90;-7.70;98716.00;;;;5066680;28;20204;-75
2023/02/09 06:58:50;;;;;;;6.75;3.90;;;-7.50;99.90;-7.50;98713.00;;;;5067598;28;20238;-73
2023/02/09 07:01:42;;;;;;;3.50;2.17;;;-7.60;99.90;-7.50;98719.00;;;;5067854;28;20200;-75
2023/02/09 07:04:31;;;;;;;6.97;4.25;;;-7.50;99.90;-7.50;98708.00;;;;5072181;28;20204;-74
2023/02/09 07:07:21;;;;;;;8.52;6.30;;;-7.50;99.90;-7.40;98716.00;;;;5071257;28;20199;-73
2023/02/09 07:10:14;;;;;;;5.82;3.85;;;-7.50;99.90;-7.30;98724.00;;;;5071873;28;20667;-74
2023/02/09 07:13:03;;;;;;;6.07;4.38;;;-7.40;99.90;-7.30;98725.00;;;;5071216;28;20224;-75
2023/02/09 07:15:56;;;;;;;6.85;4.75;;;-7.40;99.90;-7.20;98712.00;;;;5059717;28;20257;-74
2023/02/09 07:18:44;;;;;;;2.60;1.98;;;-7.40;99.90;-7.30;98714.00;;;;5071604;28;20204;-75
2023/02/09 07:21:33;;;;;;;10.90;6.63;;;-7.30;99.90;-7.10;98705.00;;;;5071355;28;20188;-74
2023/02/09 07:24:24;;;;;;;2.38;1.80;;;-7.30;99.90;-7.10;98708.00;;;;5070365;28;20250;-75
2023/02/09 07:27:13;;;;;;;5.50;4.70;;;-7.20;99.90;-7.20;98707.00;;;;5059442;28;20200;-71
2023/02/09 07:30:01;;;;;;;11.77;4.15;;;-7.20;99.90;-7.00;98705.00;;;;5069222;28;20220;-74
2023/02/09 07:32:50;;;;;;;8.77;3.53;;;-7.20;99.90;-6.90;98710.00;;;;5070525;28;20230;-75
2023/02/09 07:35:40;;;;;;;1.92;1.88;;;-7.10;99.90;-6.80;98709.00;;;;5071565;28;20200;-75
2023/02/09 07:38:29;;;;;;;2.10;1.98;;;-7.00;99.90;-6.50;98712.00;;;;5061134;28;20214;-73
2023/02/09 07:41:23;;;;;;;9.55;6.10;;;-6.90;99.90;-6.40;98725.00;;;;5071746;28;20210;-71
2023/02/09 07:44:12;;;;;;;4.88;4.40;;;-6.80;99.90;-6.90;98713.00;;;;5069556;28;20211;-71
2023/02/09 07:47:01;;;;;;;3.40;3.15;;;-6.70;99.90;-6.60;98709.00;;;;5067232;28;20200;-75
2023/02/09 07:49:50;;;;;;;4.13;2.13;;;-6.70;99.90;-6.40;98713.00;;;;5070842;28;20273;-75
2023/02/09 07:52:38;;;;;;;4.28;3.40;;;-6.70;99.90;-6.50;98714.00;;;;5084420;28;20218;-73
2023/02/09 07:55:27;;;;;;;1.95;1.48;;;-6.60;99.90;-6.40;98707.00;;;;5070981;28;20253;-75
2023/02/09 07:58:18;;;;;;;7.07;4.10;;;-6.60;99.90;-6.50;98710.00;;;;5070177;28;20285;-75
2023/02/09 08:01:10;;;;;;;5.95;4.10;;;-6.50;99.90;-6.40;98713.00;;;;5081824;28;20713;-74
2023/02/09 08:03:59;;;;;;;3.50;3.20;;;-6.50;99.90;-6.00;98725.00;;;;5070444;28;20730;-76
2023/02/09 08:06:48;;;;;;;0.90;0.65;;;-6.40;99.90;-6.10;98713.00;;;;5071222;28;20425;-75
2023/02/09 08:09:37;;;;;;;3.67;3.33;;;-6.30;99.90;-5.70;98714.00;;;;5068939;28;20227;-74
2023/02/09 08:15:40;;;;;;;1.10;1.10;;;-6.00;99.90;-5.20;98721.00;;;;5070108;28;20941;-74
2023/02/09 08:18:36;;;;;;;6.40;5.13;;;-5.80;99.90;-5.10;98707.00;;;;5070256;28;20439;-72
2023/02/09 08:21:25;;;;;;;7.72;6.30;;;-5.70;99.90;-4.80;98712.00;;;;5063067;28;20430;-75
2023/02/09 08:24:17;;;;;;;7.83;6.00;;;-5.50;99.90;-4.90;98713.00;;;;5067454;28;20196;-76
2023/02/09 08:27:05;;;;;;;4.30;3.23;;;-5.30;99.90;-4.70;98716.00;;;;5069697;28;20434;-75
2023/02/09 08:29:54;;;;;;;9.37;6.47;;;-5.20;99.90;-4.30;98719.00;;;;5065048;28;20615;-73
2023/02/09 08:32:44;;;;;;;4.73;2.97;;;-5.10;99.90;-4.20;98728.00;;;;5070132;28;20820;-74
2023/02/09 08:35:33;;;;;;;7.23;5.47;;;-4.90;99.90;-3.90;98719.00;;;;5072824;28;20422;-74
2023/02/09 08:38:22;;;;;;;10.43;6.30;;;-4.70;99.90;-3.80;98727.00;;;;5070418;28;20430;-74
2023/02/09 08:41:14;;;;;;;8.87;7.13;;;-4.30;99.90;-4.00;98727.00;;;;5069346;28;20456;-73
2023/02/09 08:44:03;;;;;;;12.83;8.67;;;-4.50;99.90;-3.70;98725.00;;;;5070647;28;20500;-73
2023/02/09 08:46:52;;;;;;;6.00;5.40;;;-4.50;99.90;-3.40;98725.00;;;;5070289;28;20427;-73
2023/02/09 08:49:42;;;;;;;7.73;6.77;;;-4.00;99.90;-3.20;98719.00;;;;5067941;28;20498;-72
2023/02/09 08:52:31;;;;;;;6.27;5.63;;;-4.00;99.90;-3.20;98725.00;;;;5070179;28;20447;-73
2023/02/09 08:55:19;;;;;;;10.97;6.17;;;-3.90;99.90;-3.00;98734.00;;;;5063052;28;20776;-73
2023/02/09 08:58:08;;;;;;;7.47;6.37;;;-3.70;99.90;-2.70;98736.00;;;;5065551;28;20556;-73
2023/02/09 09:00:58;;;;;;;5.83;4.70;;;-3.60;99.90;-2.60;98737.00;;;;5063826;28;20431;-73
2023/02/09 09:03:48;;;;;;;11.53;6.53;;;-3.40;99.90;-2.10;98735.00;;;;5070023;28;20442;-74
2023/02/09 09:06:38;;;;;;;18.90;8.30;;;-3.20;99.90;-1.40;98748.00;;;;5069917;28;20961;-74
2023/02/09 09:09:27;;;;;;;15.93;7.67;;;-2.90;99.90;-1.10;98739.00;;;;5068822;28;20466;-74
2023/02/09 09:12:16;;;;;;;15.27;8.80;;;-2.60;99.90;-0.90;98742.00;;;;5069491;28;20845;-74
2023/02/09 09:15:05;;;;;;;11.37;7.77;;;-2.40;99.90;-0.70;98734.00;;;;5068802;28;20430;-73
2023/02/09 09:17:54;;;;;;;15.07;7.63;;;-2.10;99.90;-0.30;98753.00;;;;5069737;28;20426;-73
2023/02/09 09:20:43;;;;;;;22.30;8.20;;;-1.80;99.90;-0.10;98744.00;;;;5069762;28;20439;-74
2023/02/09 09:23:33;;;;;;;14.43;8.70;;;-1.60;99.90;0.20;98741.00;;;;5069713;28;20496;-74
2023/02/09 09:26:21;;;;;;;18.90;7.50;;;-1.30;99.90;0.40;98744.00;;;;5068559;28;20445;-73
2023/02/09 09:29:11;;;;;;;13.73;8.17;;;-1.10;99.90;0.70;98744.00;;;;5066972;28;20421;-73
2023/02/09 09:31:59;;;;;;;8.93;7.07;;;-0.90;99.90;0.80;98765.00;;;;5067530;28;20462;-74
2023/02/09 09:34:48;;;;;;;14.47;8.10;;;-0.60;99.90;0.90;98757.00;;;;5071400;28;20921;-74
2023/02/09 09:37:37;;;;;;;16.17;9.17;;;-0.50;99.90;1.20;98754.00;;;;5069176;28;20430;-74
2023/02/09 09:40:30;;;;;;;13.33;5.50;;;-0.30;99.90;1.30;98763.00;;;;5069526;28;20438;-74
2023/02/09 09:43:25;;;;;;;9.47;8.20;;;-0.10;99.90;1.40;98762.00;;;;5069657;28;20457;-73
2023/02/09 09:46:19;;;;;;;14.20;6.57;;;0.00;99.90;1.70;98766.00;;;;5069341;28;20430;-74
2023/02/09 09:49:20;;;;;;;16.50;7.47;;;0.20;99.90;1.20;98745.00;;;;5063655;28;20426;-72
2023/02/09 09:52:17;;;;;;;15.97;7.10;;;0.30;99.90;1.50;98750.00;;;;5061889;28;20434;-73
2023/02/09 09:55:09;;;;;;;11.07;6.50;;;0.60;99.90;1.50;98750.00;;;;5064602;28;20426;-72
2023/02/09 09:58:02;;;;;;;9.40;5.57;;;0.50;99.90;1.30;98746.00;;;;5057365;28;20422;-72
2023/02/09 10:00:52;;;;;;;12.83;7.60;;;0.50;99.90;1.10;98742.00;;;;5064108;28;20838;-73
2023/02/09 10:03:42;;;;;;;7.77;5.10;;;0.50;99.90;1.10;98730.00;;;;5068893;28;20441;-74
2023/02/09 10:06:32;;;;;;;11.00;7.27;;;0.50;98.70;1.30;98727.00;;;;5068389;28;20426;-72
2023/02/09 10:09:35;;;;;;;13.17;6.40;;;0.50;96.80;2.30;98729.00;;;;5068863;28;20418;-73
2023/02/09 10:12:36;;;;;;;10.17;6.80;;;0.80;97.70;2.00;98720.00;;;;5068729;28;20543;-72
2023/02/09 10:15:31;;;;;;;9.80;6.27;;;1.00;98.70;2.70;98727.00;;;;5064431;28;20414;-72
2023/02/09 10:18:24;;;;;;;11.07;5.83;;;1.30;98.20;2.30;98725.00;;;;5064672;28;20425;-73
2023/02/09 10:21:15;;;;;;;15.30;6.97;;;1.30;95.10;2.70;98719.00;;;;5068318;28;20423;-73
2023/02/09 10:24:12;;;;;;;7.13;4.87;;;1.40;94.60;3.00;98728.00;;;;5057543;28;20488;-73
2023/02/09 10:27:09;;;;;;;10.70;6.60;;;1.60;94.20;3.70;98732.00;;;;5072341;28;20464;-73
2023/02/09 10:30:18;;;;;;;6.60;4.30;;;1.80;94.50;3.40;98718.00;;;;5065391;28;20462;-74
2023/02/09 10:33:15;;;;;;;6.23;4.93;;;2.10;92.60;3.90;98718.00;;;;5067653;28;21030;-73
2023/02/09 10:36:05;;;;;;;9.70;6.33;;;2.30;92.10;4.10;98708.00;;;;5080409;28;20438;-72
2023/02/09 10:39:13;;;;;;;11.03;5.90;;;2.50;91.10;3.50;98703.00;;;;5070452;28;20422;-73
2023/02/09 10:42:19;;;;;;;9.67;5.27;;;2.50;87.20;4.30;98702.00;;;;5063616;28;20999;-73
2023/02/09 10:45:16;;;;;;;13.50;5.77;;;2.90;87.00;3.60;98678.00;;;;5080045;28;20438;-74
2023/02/09 10:48:20;;;;;;;8.37;6.10;;;3.40;83.50;4.60;98684.00;;;;5070763;28;20463;-73
2023/02/09 10:51:27;;;;;;;8.40;5.33;;;4.10;80.50;6.20;98680.00;;;;5071784;28;20504;-73
2023/02/09 10:54:23;;;;;;;8.50;5.83;;;5.10;80.70;7.00;98693.00;;;;5072073;28;20497;-73
2023/02/09 10:57:26;;;;;;;5.90;5.10;;;6.10;77.60;7.90;98686.00;;;;5072443;28;20249;-73
2023/02/09 11:00:33;;;;;;;11.07;5.97;;;7.10;76.50;7.40;98663.00;;;;5072449;28;20207;-73
2023/02/09 11:03:25;;;;;;;8.23;6.07;;;7.90;64.90;7.80;98667.00;;;;5072331;28;20224;-72
2023/02/09 11:06:18;;;;;;;7.77;5.87;;;8.10;61.50;7.70;98658.00;;;;5071251;28;20202;-71
2023/02/09 11:09:13;;;;;;;8.50;6.17;;;8.20;59.60;7.50;98654.00;;;;5071647;28;20267;-73
2023/02/09 11:12:02;;;;;;;11.60;6.03;;;8.40;57.60;8.10;98646.00;;;;5071157;28;20261;-72
2023/02/09 11:14:51;;;;;;;9.90;4.90;;;8.20;57.60;8.00;98646.00;;;;5072277;28;20249;-72
2023/02/09 11:17:44;;;;;;;7.83;5.80;;;8.20;57.30;6.30;98636.00;;;;5070717;28;20590;-76
2023/02/09 11:20:39;;;;;;;13.17;5.83;;;7.80;56.50;8.00;98636.00;;;;5071316;28;20200;-76
2023/02/09 11:23:42;;;;;;;5.70;4.43;;;7.70;58.00;8.10;98636.00;;;;5070928;28;20226;-74
2023/02/09 11:26:41;;;;;;;6.83;5.07;;;8.00;56.40;8.80;98633.00;;;;5071192;28;20210;-73
2023/02/09 11:29:36;;;;;;;8.70;5.13;;;8.20;56.80;9.90;98637.00;;;;5069564;28;20379;-73
2023/02/09 11:32:31;;;;;;;8.43;4.67;;;8.50;58.20;10.10;98634.00;;;;5070379;28;20235;-73
2023/02/09 11:35:42;;;;;;;6.83;6.13;;;8.90;57.70;10.20;98638.00;;;;5078617;28;20200;-73
2023/02/09 11:38:38;;;;;;;6.33;4.80;;;9.30;56.30;8.00;98613.00;;;;5061382;28;20218;-75
2023/02/09 11:44:46;;;;;;;7.30;5.17;;;8.60;53.50;8.90;98611.00;;;;5071480;28;20196;-75
2023/02/09 11:47:50;;;;;;;9.20;4.80;;;8.40;55.10;9.70;98613.00;;;;5070228;28;20212;-74
2023/02/09 11:50:52;;;;;;;8.47;5.33;;;8.50;55.00;10.40;98623.00;;;;5070132;28;20308;-74
2023/02/09 11:53:49;;;;;;;8.47;5.30;;;8.80;55.90;9.90;98617.00;;;;5070099;28;20227;-74
2023/02/09 11:56:41;;;;;;;7.43;4.90;;;9.00;54.70;9.00;98606.00;;;;5071212;28;20199;-73
2023/02/09 11:59:34;;;;;;;6.90;5.00;;;9.00;52.40;9.30;98611.00;;;;5070790;28;20200;-72
2023/02/09 12:02:38;;;;;;;7.93;4.93;;;8.70;53.50;9.90;98604.00;;;;5070631;28;20281;-73
2023/02/09 12:05:28;;;;;;;5.97;3.80;;;8.80;54.10;10.40;98596.00;;;;5069905;28;20199;-71
2023/02/09 12:08:45;;;;;;;7.63;5.90;;;9.10;54.40;11.20;98607.00;;;;5069766;28;20202;-72
2023/02/09 12:11:55;;;;;;;6.80;4.63;;;9.50;54.60;11.80;98601.00;;;;5067582;28;20219;-70
2023/02/09 12:14:56;;;;;;;6.33;4.63;;;9.90;54.30;10.70;98597.00;;;;5069510;28;20211;-70
2023/02/09 12:17:51;;;;;;;6.10;4.90;;;10.10;52.50;10.60;98587.00;;;;5069388;28;20200;-71
2023/02/09 12:20:51;;;;;;;6.33;4.80;;;10.10;51.70;11.70;98590.00;;;;5070818;28;20204;-71
2023/02/09 12:23:44;;;;;;;6.30;4.40;;;10.10;53.30;10.60;98584.00;;;;5072002;28;20299;-72
2023/02/09 12:26:43;;;;;;;5.40;4.47;;;10.20;51.20;11.00;98572.00;;;;5069420;28;20211;-71
2023/02/09 12:29:38;;;;;;;7.77;5.47;;;10.10;51.60;11.40;98569.00;;;;5068860;28;20200;-71
2023/02/09 12:32:43;;;;;;;6.33;5.17;;;10.30;51.80;11.00;98563.00;;;;5070757;28;20240;-70
2023/02/09 12:35:39;;;;;;;5.60;5.10;;;10.20;51.40;10.20;98557.00;;;;5072389;28;20196;-69
2023/02/09 12:38:59;;;;;;;5.80;4.50;;;9.90;50.60;9.50;98556.00;;;;5068966;28;20204;-73
2023/02/09 12:42:27;;;;;;;6.17;5.07;;;9.70;51.20;9.80;98549.00;;;;5061577;28;20693;-71
2023/02/09 12:45:34;;;;;;;9.50;5.03;;;9.60;51.10;8.10;98540.00;;;;5066487;28;20203;-70
2023/02/09 12:48:23;;;;;;;8.43;4.40;;;8.90;50.60;8.70;98537.00;;;;5059631;28;20208;-69
2023/02/09 12:51:42;;;;;;;7.97;5.73;;;8.50;52.40;9.30;98539.00;;;;5070146;28;20224;-69
2023/02/09 12:54:56;;;;;;;9.10;5.33;;;8.70;52.00;10.40;98548.00;;;;5069789;28;20274;-68
2023/02/09 12:57:50;;;;;;;6.33;5.50;;;9.10;51.60;11.50;98545.00;;;;5064667;28;20218;-69
2023/02/09 13:00:54;;;;;;;6.00;5.13;;;9.40;51.80;11.10;98545.00;;;;5069427;28;20253;-69
2023/02/09 13:03:50;;;;;;;5.63;4.43;;;9.90;51.40;10.40;98529.00;;;;5069438;28;20268;-68